createdAt,value
2017-03-10T00:00:13.977Z,0
2017-03-10T00:01:24.290Z,0
2017-03-10T00:02:35.007Z,0
2017-03-10T00:03:45.712Z,0
2017-03-10T00:04:56.415Z,0
2017-03-10T00:06:07.125Z,0
2017-03-10T00:07:17.836Z,0
2017-03-10T00:08:28.547Z,0
2017-03-10T00:09:39.254Z,0
2017-03-10T00:10:49.961Z,0
2017-03-10T00:12:00.673Z,0
2017-03-10T00:13:11.386Z,0
2017-03-10T00:14:22.090Z,0
2017-03-10T00:15:32.798Z,0
2017-03-10T00:16:43.526Z,0
2017-03-10T00:17:54.229Z,0
2017-03-10T00:19:04.936Z,0
2017-03-10T00:20:15.646Z,0
2017-03-10T00:21:25.952Z,0
2017-03-10T00:22:36.648Z,0
2017-03-10T00:23:47.353Z,0
2017-03-10T00:24:58.065Z,0
2017-03-10T00:26:08.389Z,0
2017-03-10T00:27:19.102Z,0
2017-03-10T00:28:29.803Z,0
2017-03-10T00:29:40.494Z,0
2017-03-10T00:30:51.214Z,0
2017-03-10T00:32:01.924Z,0
2017-03-10T00:33:12.645Z,0
2017-03-10T00:34:23.339Z,0
2017-03-10T00:35:33.240Z,0
2017-03-10T00:36:43.944Z,0
2017-03-10T00:37:54.680Z,0
2017-03-10T00:39:05.376Z,0
2017-03-10T00:40:16.075Z,0
2017-03-10T00:41:26.803Z,0
2017-03-10T00:42:37.518Z,0
2017-03-10T00:43:48.231Z,0
2017-03-10T00:44:58.926Z,0
2017-03-10T00:46:09.265Z,0
2017-03-10T00:47:19.972Z,0
2017-03-10T00:48:30.679Z,0
2017-03-10T00:49:41.023Z,0
2017-03-10T00:50:51.741Z,0
2017-03-10T00:52:02.458Z,0
2017-03-10T00:53:13.160Z,0
2017-03-10T00:54:23.859Z,0
2017-03-10T00:55:34.579Z,0
2017-03-10T00:56:45.332Z,0
2017-03-10T00:57:56.055Z,0
2017-03-10T00:59:06.767Z,0
2017-03-10T01:00:17.499Z,0
2017-03-10T01:01:28.211Z,0
2017-03-10T01:02:38.919Z,0
2017-03-10T01:03:49.622Z,0
2017-03-10T01:05:00.335Z,0
2017-03-10T01:06:10.240Z,0
2017-03-10T01:07:20.961Z,0
2017-03-10T01:08:30.878Z,0
2017-03-10T01:09:41.572Z,0
2017-03-10T01:10:52.310Z,0
2017-03-10T01:12:03.031Z,0
2017-03-10T01:13:13.747Z,0
2017-03-10T01:14:24.056Z,0
2017-03-10T01:15:34.358Z,0
2017-03-10T01:16:44.670Z,0
2017-03-10T01:17:55.404Z,0
2017-03-10T01:19:06.128Z,0
2017-03-10T01:20:16.838Z,0
2017-03-10T01:21:27.554Z,0
2017-03-10T01:22:38.252Z,0
2017-03-10T01:23:48.947Z,0
2017-03-10T01:24:59.265Z,0
2017-03-10T01:26:10.002Z,0
2017-03-10T01:27:20.713Z,0
2017-03-10T01:28:31.435Z,0
2017-03-10T01:29:42.126Z,0
2017-03-10T01:30:52.832Z,0
2017-03-10T01:32:03.541Z,0
2017-03-10T01:33:13.869Z,0
2017-03-10T01:34:24.573Z,0
2017-03-10T01:35:35.280Z,0
2017-03-10T01:36:45.988Z,0
2017-03-10T01:37:56.698Z,0
2017-03-10T01:39:07.411Z,0
2017-03-10T01:40:18.132Z,0
2017-03-10T01:41:28.438Z,0
2017-03-10T01:42:39.147Z,0
2017-03-10T01:43:49.858Z,0
2017-03-10T01:45:00.572Z,0
2017-03-10T01:46:11.283Z,0
2017-03-10T01:47:21.579Z,0
2017-03-10T01:48:32.304Z,0
2017-03-10T01:49:42.999Z,0
2017-03-10T01:50:53.698Z,0
2017-03-10T01:52:04.409Z,0
2017-03-10T01:53:15.124Z,0
2017-03-10T01:54:25.830Z,0
2017-03-10T01:55:36.154Z,0
2017-03-10T01:56:46.856Z,0
2017-03-10T01:57:57.555Z,0
2017-03-10T01:59:08.283Z,0
2017-03-10T02:00:18.973Z,0
2017-03-10T02:01:29.689Z,0
2017-03-10T02:02:40.391Z,0
2017-03-10T02:03:51.084Z,0
2017-03-10T02:05:01.783Z,0
2017-03-10T02:06:12.081Z,0
2017-03-10T02:07:22.809Z,0
2017-03-10T02:08:33.116Z,0
2017-03-10T02:09:43.430Z,0
2017-03-10T02:10:54.122Z,0
2017-03-10T02:12:04.813Z,0
2017-03-10T02:13:15.522Z,0
2017-03-10T02:14:25.848Z,0
2017-03-10T02:15:36.557Z,0
2017-03-10T02:16:47.256Z,0
2017-03-10T02:17:57.967Z,0
2017-03-10T02:19:08.661Z,0
2017-03-10T02:20:19.389Z,0
2017-03-10T02:21:29.738Z,0
2017-03-10T02:22:40.455Z,0
2017-03-10T02:23:51.163Z,0
2017-03-10T02:25:01.902Z,0
2017-03-10T02:26:12.602Z,0
2017-03-10T02:27:23.298Z,0
2017-03-10T02:28:34.010Z,0
2017-03-10T02:29:44.736Z,0
2017-03-10T02:30:55.475Z,0
2017-03-10T02:32:05.828Z,0
2017-03-10T02:33:16.135Z,0
2017-03-10T02:34:26.864Z,0
2017-03-10T02:35:37.596Z,0
2017-03-10T02:36:48.287Z,0
2017-03-10T02:37:58.990Z,0
2017-03-10T02:39:09.690Z,0
2017-03-10T02:40:20.427Z,0
2017-03-10T02:41:31.134Z,0
2017-03-10T02:42:41.823Z,0
2017-03-10T02:43:52.531Z,0
2017-03-10T02:45:03.249Z,0
2017-03-10T02:46:13.556Z,0
2017-03-10T02:47:24.266Z,0
2017-03-10T02:48:34.992Z,0
2017-03-10T02:49:45.688Z,0
2017-03-10T02:50:56.389Z,0
2017-03-10T02:52:07.101Z,0
2017-03-10T02:53:17.809Z,0
2017-03-10T02:54:28.532Z,0
2017-03-10T02:55:38.841Z,0
2017-03-10T02:56:49.534Z,0
2017-03-10T02:58:00.249Z,0
2017-03-10T02:59:10.980Z,0
2017-03-10T03:00:21.705Z,0
2017-03-10T03:01:32.400Z,0
2017-03-10T03:02:43.104Z,0
2017-03-10T03:03:53.819Z,0
2017-03-10T03:05:04.535Z,0
2017-03-10T03:06:15.243Z,0
2017-03-10T03:07:25.975Z,0
2017-03-10T03:08:36.309Z,0
2017-03-10T03:09:47.023Z,0
2017-03-10T03:10:57.724Z,0
2017-03-10T03:12:08.438Z,0
2017-03-10T03:13:19.165Z,0
2017-03-10T03:14:29.870Z,0
2017-03-10T03:15:40.614Z,0
2017-03-10T03:16:51.313Z,0
2017-03-10T03:18:02.035Z,0
2017-03-10T03:19:12.752Z,0
2017-03-10T03:20:23.487Z,0
2017-03-10T03:21:34.197Z,0
2017-03-10T03:22:44.912Z,0
2017-03-10T03:23:55.637Z,0
2017-03-10T03:25:06.377Z,0
2017-03-10T03:26:17.090Z,0
2017-03-10T03:27:27.800Z,0
2017-03-10T03:28:38.502Z,0
2017-03-10T03:29:49.197Z,0
2017-03-10T03:30:59.918Z,0
2017-03-10T03:32:10.610Z,0
2017-03-10T03:33:21.323Z,0
2017-03-10T03:34:32.029Z,0
2017-03-10T03:35:42.335Z,0
2017-03-10T03:36:53.072Z,0
2017-03-10T03:38:03.813Z,0
2017-03-10T03:39:14.527Z,0
2017-03-10T03:40:25.215Z,0
2017-03-10T03:41:35.916Z,0
2017-03-10T03:42:46.618Z,0
2017-03-10T03:43:57.310Z,0
2017-03-10T03:45:08.036Z,0
2017-03-10T03:46:18.346Z,0
2017-03-10T03:47:29.049Z,0
2017-03-10T03:48:39.364Z,0
2017-03-10T03:49:50.059Z,0
2017-03-10T03:51:00.771Z,0
2017-03-10T03:52:11.461Z,0
2017-03-10T03:53:22.173Z,0
2017-03-10T03:54:32.891Z,0
2017-03-10T03:55:43.599Z,0
2017-03-10T03:56:54.352Z,0
2017-03-10T03:58:05.074Z,0
2017-03-10T03:59:15.772Z,0
2017-03-10T04:00:26.463Z,0
2017-03-10T04:01:37.172Z,0
2017-03-10T04:02:47.888Z,0
2017-03-10T04:03:58.586Z,0
2017-03-10T04:05:09.305Z,0
2017-03-10T04:06:20.028Z,0
2017-03-10T04:07:30.350Z,0
2017-03-10T04:08:40.684Z,0
2017-03-10T04:09:51.385Z,0
2017-03-10T04:11:02.099Z,0
2017-03-10T04:12:12.802Z,0
2017-03-10T04:13:23.519Z,0
2017-03-10T04:14:34.235Z,0
2017-03-10T04:15:44.949Z,0
2017-03-10T04:16:55.649Z,0
2017-03-10T04:18:06.347Z,0
2017-03-10T04:19:16.657Z,0
2017-03-10T04:20:27.358Z,0
2017-03-10T04:21:38.065Z,0
2017-03-10T04:22:48.762Z,0
2017-03-10T04:23:59.457Z,0
2017-03-10T04:25:10.173Z,0
2017-03-10T04:26:20.876Z,0
2017-03-10T04:27:31.598Z,0
2017-03-10T04:28:42.313Z,0
2017-03-10T04:29:53.019Z,0
2017-03-10T04:31:03.724Z,0
2017-03-10T04:32:14.436Z,0
2017-03-10T04:33:25.138Z,0
2017-03-10T04:34:35.849Z,0
2017-03-10T04:35:46.565Z,0
2017-03-10T04:36:57.274Z,0
2017-03-10T04:38:07.976Z,0
2017-03-10T04:39:18.692Z,0
2017-03-10T04:40:29.414Z,0
2017-03-10T04:41:40.114Z,0
2017-03-10T04:42:50.810Z,0
2017-03-10T04:44:01.528Z,0
2017-03-10T04:45:12.263Z,0
2017-03-10T04:46:22.978Z,0
2017-03-10T04:47:33.679Z,0
2017-03-10T04:48:44.408Z,0
2017-03-10T04:49:55.099Z,0
2017-03-10T04:51:05.396Z,0
2017-03-10T04:52:15.719Z,0
2017-03-10T04:53:26.441Z,0
2017-03-10T04:54:37.149Z,0
2017-03-10T04:55:47.872Z,0
2017-03-10T04:56:58.582Z,0
2017-03-10T04:58:09.285Z,0
2017-03-10T04:59:19.987Z,0
2017-03-10T05:00:30.282Z,0
2017-03-10T05:01:40.607Z,0
2017-03-10T05:02:51.302Z,0
2017-03-10T05:04:02.050Z,0
2017-03-10T05:05:12.791Z,0
2017-03-10T05:06:23.473Z,0
2017-03-10T05:07:34.167Z,0
2017-03-10T05:08:44.853Z,0
2017-03-10T05:09:55.575Z,0
2017-03-10T05:11:06.311Z,4
2017-03-10T05:12:17.007Z,4
2017-03-10T05:13:27.698Z,0
2017-03-10T05:14:38.397Z,4
2017-03-10T05:15:49.122Z,0
2017-03-10T05:16:59.821Z,4
2017-03-10T05:18:10.513Z,8
2017-03-10T05:19:21.214Z,8
2017-03-10T05:20:31.516Z,8
2017-03-10T05:21:42.241Z,8
2017-03-10T05:22:52.930Z,8
2017-03-10T05:24:03.652Z,12
2017-03-10T05:25:13.964Z,16
2017-03-10T05:26:24.286Z,16
2017-03-10T05:27:34.995Z,20
2017-03-10T05:28:45.711Z,24
2017-03-10T05:29:56.409Z,32
2017-03-10T05:31:07.107Z,36
2017-03-10T05:32:17.816Z,44
2017-03-10T05:33:28.509Z,48
2017-03-10T05:34:39.210Z,52
2017-03-10T05:35:49.929Z,60
2017-03-10T05:37:00.653Z,72
2017-03-10T05:38:11.373Z,84
2017-03-10T05:39:22.076Z,96
2017-03-10T05:40:32.781Z,108
2017-03-10T05:41:43.088Z,120
2017-03-10T05:42:53.803Z,136
2017-03-10T05:44:04.503Z,152
2017-03-10T05:45:14.818Z,168
2017-03-10T05:46:25.526Z,184
2017-03-10T05:47:36.228Z,204
2017-03-10T05:48:46.953Z,224
2017-03-10T05:49:57.654Z,252
2017-03-10T05:51:08.341Z,272
2017-03-10T05:52:19.058Z,300
2017-03-10T05:53:29.754Z,324
2017-03-10T05:54:40.057Z,352
2017-03-10T05:55:50.770Z,380
2017-03-10T05:57:01.483Z,416
2017-03-10T05:58:12.205Z,444
2017-03-10T05:59:22.899Z,476
2017-03-10T06:00:33.609Z,516
2017-03-10T06:01:44.314Z,552
2017-03-10T06:02:55.020Z,588
2017-03-10T06:04:05.708Z,628
2017-03-10T06:05:16.020Z,668
2017-03-10T06:06:26.729Z,704
2017-03-10T06:07:37.422Z,744
2017-03-10T06:08:48.119Z,780
2017-03-10T06:09:58.839Z,820
2017-03-10T06:11:09.557Z,860
2017-03-10T06:12:20.262Z,900
2017-03-10T06:13:30.970Z,940
2017-03-10T06:14:41.272Z,984
2017-03-10T06:15:51.966Z,1024
2017-03-10T06:17:02.669Z,1068
2017-03-10T06:18:12.983Z,1116
2017-03-10T06:19:23.680Z,1160
2017-03-10T06:20:34.378Z,1208
2017-03-10T06:21:44.696Z,1260
2017-03-10T06:22:55.398Z,1328
2017-03-10T06:24:06.106Z,1404
2017-03-10T06:25:16.421Z,1444
2017-03-10T06:26:27.133Z,1488
2017-03-10T06:27:37.835Z,1528
2017-03-10T06:28:48.550Z,1572
2017-03-10T06:29:58.858Z,1616
2017-03-10T06:31:09.555Z,1656
2017-03-10T06:32:20.279Z,1696
2017-03-10T06:33:30.983Z,1736
2017-03-10T06:34:41.678Z,1776
2017-03-10T06:35:52.406Z,1816
2017-03-10T06:37:03.116Z,1856
2017-03-10T06:38:13.423Z,1892
2017-03-10T06:39:24.115Z,1936
2017-03-10T06:40:34.440Z,1972
2017-03-10T06:41:45.150Z,2008
2017-03-10T06:42:55.853Z,2048
2017-03-10T06:44:06.565Z,2088
2017-03-10T06:45:17.292Z,2128
2017-03-10T06:46:27.992Z,2160
2017-03-10T06:47:38.718Z,2196
2017-03-10T06:48:49.426Z,2228
2017-03-10T06:49:59.740Z,2264
2017-03-10T06:51:10.476Z,2300
2017-03-10T06:52:21.191Z,2332
2017-03-10T06:53:31.099Z,2364
2017-03-10T06:54:41.835Z,2396
2017-03-10T06:55:52.550Z,2432
2017-03-10T06:57:03.263Z,2464
2017-03-10T06:58:13.988Z,2496
2017-03-10T06:59:24.691Z,2528
2017-03-10T07:00:35.428Z,2560
2017-03-10T07:01:45.759Z,2592
2017-03-10T07:02:56.447Z,2624
2017-03-10T07:04:07.159Z,2656
2017-03-10T07:05:17.874Z,2688
2017-03-10T07:06:28.578Z,2720
2017-03-10T07:07:39.280Z,2752
2017-03-10T07:08:49.967Z,2784
2017-03-10T07:10:00.671Z,2812
2017-03-10T07:11:11.388Z,2844
2017-03-10T07:12:22.083Z,2876
2017-03-10T07:13:32.783Z,2908
2017-03-10T07:14:43.520Z,2940
2017-03-10T07:15:54.220Z,2968
2017-03-10T07:17:04.946Z,3000
2017-03-10T07:18:15.668Z,3024
2017-03-10T07:19:26.366Z,3052
2017-03-10T07:20:36.672Z,3080
2017-03-10T07:21:46.632Z,3108
2017-03-10T07:22:57.347Z,3136
2017-03-10T07:24:08.072Z,3160
2017-03-10T07:25:17.972Z,3188
2017-03-10T07:26:28.682Z,3212
2017-03-10T07:27:39.393Z,3240
2017-03-10T07:28:50.096Z,3264
2017-03-10T07:30:00.403Z,3288
2017-03-10T07:31:11.107Z,3316
2017-03-10T07:32:21.415Z,3340
2017-03-10T07:33:31.753Z,3364
2017-03-10T07:34:42.457Z,3392
2017-03-10T07:35:53.156Z,3424
2017-03-10T07:37:03.855Z,3444
2017-03-10T07:38:14.236Z,3468
2017-03-10T07:39:24.925Z,3492
2017-03-10T07:40:35.621Z,3520
2017-03-10T07:41:46.313Z,3564
2017-03-10T07:42:57.057Z,3608
2017-03-10T07:44:07.359Z,3632
2017-03-10T07:45:18.069Z,3636
2017-03-10T07:46:28.788Z,3648
2017-03-10T07:47:39.494Z,3672
2017-03-10T07:48:50.231Z,3724
2017-03-10T07:50:00.529Z,3772
2017-03-10T07:51:10.832Z,3804
2017-03-10T07:52:21.150Z,3820
2017-03-10T07:53:31.464Z,3816
2017-03-10T07:54:42.166Z,3840
2017-03-10T07:55:52.883Z,3880
2017-03-10T07:57:03.606Z,3952
2017-03-10T07:58:14.312Z,3956
2017-03-10T07:59:25.014Z,3956
2017-03-10T08:00:35.330Z,3956
2017-03-10T08:01:46.027Z,3964
2017-03-10T08:02:56.729Z,3980
2017-03-10T08:04:07.454Z,4008
2017-03-10T08:05:18.184Z,4028
2017-03-10T08:06:28.888Z,4064
2017-03-10T08:07:39.609Z,4136
2017-03-10T08:08:50.306Z,4172
2017-03-10T08:10:01.023Z,4156
2017-03-10T08:11:11.960Z,4172
2017-03-10T08:12:22.684Z,4208
2017-03-10T08:13:33.393Z,4236
2017-03-10T08:14:44.125Z,4292
2017-03-10T08:15:54.477Z,4300
2017-03-10T08:17:05.189Z,4312
2017-03-10T08:18:15.488Z,4304
2017-03-10T08:19:25.821Z,4380
2017-03-10T08:20:36.516Z,4364
2017-03-10T08:21:47.213Z,4372
2017-03-10T08:22:57.927Z,4404
2017-03-10T08:24:08.631Z,4432
2017-03-10T08:25:19.346Z,4452
2017-03-10T08:26:29.656Z,4476
2017-03-10T08:27:40.374Z,4504
2017-03-10T08:28:51.076Z,4536
2017-03-10T08:30:01.773Z,4564
2017-03-10T08:31:12.470Z,4588
2017-03-10T08:32:23.184Z,4612
2017-03-10T08:33:33.904Z,4640
2017-03-10T08:34:44.230Z,4684
2017-03-10T08:35:54.949Z,4712
2017-03-10T08:37:05.279Z,4732
2017-03-10T08:38:15.980Z,4768
2017-03-10T08:39:26.681Z,4800
2017-03-10T08:40:37.383Z,4832
2017-03-10T08:41:48.101Z,4872
2017-03-10T08:42:58.801Z,4908
2017-03-10T08:44:09.500Z,4944
2017-03-10T08:45:20.216Z,4984
2017-03-10T08:46:30.527Z,5024
2017-03-10T08:47:41.232Z,5068
2017-03-10T08:48:51.934Z,5108
2017-03-10T08:50:02.240Z,5152
2017-03-10T08:51:13.034Z,5196
2017-03-10T08:52:23.760Z,5236
2017-03-10T08:53:34.074Z,5280
2017-03-10T08:54:44.792Z,5324
2017-03-10T08:55:55.507Z,5368
2017-03-10T08:57:06.220Z,5412
2017-03-10T08:58:16.925Z,5456
2017-03-10T08:59:27.236Z,5492
2017-03-10T09:00:37.963Z,5532
2017-03-10T09:01:48.669Z,5568
2017-03-10T09:02:59.385Z,5600
2017-03-10T09:04:09.701Z,5636
2017-03-10T09:05:20.397Z,5672
2017-03-10T09:06:30.696Z,5712
2017-03-10T09:07:41.411Z,5744
2017-03-10T09:08:52.127Z,5780
2017-03-10T09:10:02.456Z,5812
2017-03-10T09:11:12.776Z,5840
2017-03-10T09:12:23.476Z,5872
2017-03-10T09:13:34.209Z,5900
2017-03-10T09:14:44.917Z,5936
2017-03-10T09:15:55.625Z,5968
2017-03-10T09:17:06.339Z,6004
2017-03-10T09:18:17.053Z,6040
2017-03-10T09:19:27.744Z,6072
2017-03-10T09:20:38.066Z,6104
2017-03-10T09:21:48.789Z,6140
2017-03-10T09:22:59.487Z,6172
2017-03-10T09:24:10.200Z,6208
2017-03-10T09:25:20.899Z,6240
2017-03-10T09:26:31.638Z,6272
2017-03-10T09:27:42.368Z,6308
2017-03-10T09:28:53.059Z,6344
2017-03-10T09:30:03.777Z,6384
2017-03-10T09:31:14.508Z,6420
2017-03-10T09:32:25.228Z,6460
2017-03-10T09:33:35.539Z,6504
2017-03-10T09:34:46.254Z,6548
2017-03-10T09:35:56.974Z,6588
2017-03-10T09:37:07.672Z,6632
2017-03-10T09:38:18.388Z,6676
2017-03-10T09:39:29.129Z,6716
2017-03-10T09:40:39.832Z,6752
2017-03-10T09:41:50.557Z,6796
2017-03-10T09:43:01.300Z,6836
2017-03-10T09:44:11.623Z,6660
2017-03-10T09:45:22.333Z,6728
2017-03-10T09:46:32.642Z,6768
2017-03-10T09:47:42.554Z,6796
2017-03-10T09:48:53.273Z,6840
2017-03-10T09:50:03.979Z,6884
2017-03-10T09:51:13.894Z,6900
2017-03-10T09:52:24.619Z,6964
2017-03-10T09:53:35.326Z,7004
2017-03-10T09:54:46.033Z,7052
2017-03-10T09:55:56.769Z,7100
2017-03-10T09:57:07.470Z,7148
2017-03-10T09:58:18.200Z,7184
2017-03-10T09:59:28.898Z,7236
2017-03-10T10:00:39.204Z,7288
2017-03-10T10:01:49.950Z,7336
2017-03-10T10:03:00.662Z,7384
2017-03-10T10:04:10.978Z,7436
2017-03-10T10:05:21.300Z,7500
2017-03-10T10:06:32.005Z,7532
2017-03-10T10:07:41.920Z,7564
2017-03-10T10:08:52.645Z,7612
2017-03-10T10:10:03.373Z,7668
2017-03-10T10:11:13.696Z,7684
2017-03-10T10:12:24.408Z,7692
2017-03-10T10:13:35.136Z,7704
2017-03-10T10:14:45.468Z,7704
2017-03-10T10:15:56.180Z,7700
2017-03-10T10:17:06.478Z,7716
2017-03-10T10:18:16.799Z,7748
2017-03-10T10:19:27.503Z,7792
2017-03-10T10:20:38.226Z,7848
2017-03-10T10:21:48.932Z,7924
2017-03-10T10:22:59.659Z,7992
2017-03-10T10:24:10.378Z,8036
2017-03-10T10:25:20.712Z,8088
2017-03-10T10:26:31.038Z,8144
2017-03-10T10:27:41.732Z,8208
2017-03-10T10:28:52.455Z,8272
2017-03-10T10:30:03.184Z,8368
2017-03-10T10:31:13.503Z,8492
2017-03-10T10:32:23.815Z,8624
2017-03-10T10:33:34.144Z,8828
2017-03-10T10:34:44.861Z,8984
2017-03-10T10:35:55.586Z,9012
2017-03-10T10:37:06.318Z,9156
2017-03-10T10:38:17.068Z,9508
2017-03-10T10:39:27.831Z,9988
2017-03-10T10:40:37.755Z,10244
2017-03-10T10:41:48.482Z,10308
2017-03-10T10:42:59.187Z,10132
2017-03-10T10:44:09.921Z,9900
2017-03-10T10:45:20.632Z,10016
2017-03-10T10:46:31.331Z,10256
2017-03-10T10:47:42.056Z,10480
2017-03-10T10:48:52.784Z,10640
2017-03-10T10:50:03.524Z,10820
2017-03-10T10:51:13.849Z,11052
2017-03-10T10:52:24.576Z,9888
2017-03-10T10:53:35.305Z,9304
2017-03-10T10:54:46.040Z,9848
2017-03-10T10:55:56.767Z,9180
2017-03-10T10:57:07.468Z,10288
2017-03-10T10:58:18.188Z,10488
2017-03-10T10:59:28.893Z,10480
2017-03-10T11:00:39.204Z,10592
2017-03-10T11:01:49.951Z,11092
2017-03-10T11:03:00.660Z,12016
2017-03-10T11:04:11.383Z,12064
2017-03-10T11:05:22.096Z,13776
2017-03-10T11:06:32.812Z,13552
2017-03-10T11:07:43.532Z,14276
2017-03-10T11:08:54.258Z,15100
2017-03-10T11:10:04.969Z,15648
2017-03-10T11:11:15.300Z,17664
2017-03-10T11:12:25.635Z,30048
2017-03-10T11:13:35.985Z,37696
2017-03-10T11:14:46.694Z,36032
2017-03-10T11:15:57.426Z,33376
2017-03-10T11:17:08.145Z,26816
2017-03-10T11:18:18.867Z,23552
2017-03-10T11:19:29.616Z,30848
2017-03-10T11:20:39.934Z,22752
2017-03-10T11:21:50.656Z,22560
2017-03-10T11:23:01.422Z,19424
2017-03-10T11:24:12.153Z,21952
2017-03-10T11:25:22.890Z,20832
2017-03-10T11:26:33.615Z,19840
2017-03-10T11:27:44.327Z,25248
2017-03-10T11:28:55.060Z,26240
2017-03-10T11:30:05.389Z,25760
2017-03-10T11:31:16.130Z,27104
2017-03-10T11:32:26.841Z,27296
2017-03-10T11:33:37.561Z,26272
2017-03-10T11:34:48.296Z,24960
2017-03-10T11:35:59.043Z,29568
2017-03-10T11:37:09.368Z,33664
2017-03-10T11:38:20.096Z,30976
2017-03-10T11:39:30.804Z,29760
2017-03-10T11:40:41.535Z,34144
2017-03-10T11:41:52.243Z,45056
2017-03-10T11:43:02.969Z,34400
2017-03-10T11:44:13.686Z,27968
2017-03-10T11:45:24.395Z,40096
2017-03-10T11:46:35.121Z,24256
2017-03-10T11:47:45.848Z,24704
2017-03-10T11:48:56.553Z,25696
2017-03-10T11:50:07.283Z,18656
2017-03-10T11:51:17.206Z,16928
2017-03-10T11:52:27.923Z,14184
2017-03-10T11:53:38.651Z,13988
2017-03-10T11:54:49.386Z,16736
2017-03-10T11:56:00.114Z,25056
2017-03-10T11:57:10.844Z,21152
2017-03-10T11:58:21.564Z,21248
2017-03-10T11:59:31.928Z,22144
2017-03-10T12:00:42.673Z,33472
2017-03-10T12:01:53.409Z,31584
2017-03-10T12:03:04.124Z,26944
2017-03-10T12:04:14.851Z,36160
2017-03-10T12:05:25.570Z,33088
2017-03-10T12:06:36.304Z,32160
2017-03-10T12:07:46.632Z,27968
2017-03-10T12:08:57.358Z,26080
2017-03-10T12:10:08.093Z,25504
2017-03-10T12:11:18.839Z,25376
2017-03-10T12:12:29.592Z,24544
2017-03-10T12:13:40.320Z,24128
2017-03-10T12:14:51.070Z,25888
2017-03-10T12:16:01.793Z,22720
2017-03-10T12:17:12.523Z,25600
2017-03-10T12:18:22.467Z,24896
2017-03-10T12:19:33.202Z,19776
2017-03-10T12:20:43.641Z,20608
2017-03-10T12:21:54.370Z,19968
2017-03-10T12:23:05.123Z,25760
2017-03-10T12:24:15.895Z,19232
2017-03-10T12:25:26.603Z,25568
2017-03-10T12:26:37.324Z,23936
2017-03-10T12:27:47.655Z,24544
2017-03-10T12:28:58.366Z,29824
2017-03-10T12:30:08.700Z,29216
2017-03-10T12:31:19.432Z,28768
2017-03-10T12:32:30.217Z,26944
2017-03-10T12:33:40.950Z,31456
2017-03-10T12:34:51.675Z,30528
2017-03-10T12:36:02.426Z,30656
2017-03-10T12:37:12.741Z,26176
2017-03-10T12:38:23.079Z,19776
2017-03-10T12:39:33.840Z,20416
2017-03-10T12:40:43.770Z,18272
2017-03-10T12:41:54.099Z,18144
2017-03-10T12:43:04.831Z,22112
2017-03-10T12:44:15.554Z,17632
2017-03-10T12:45:26.286Z,17344
2017-03-10T12:46:37.015Z,25024
2017-03-10T12:47:49.428Z,26112
2017-03-10T12:48:59.767Z,18752
2017-03-10T12:50:10.506Z,16176
2017-03-10T12:51:21.233Z,22592
2017-03-10T12:52:31.952Z,19136
2017-03-10T12:53:42.680Z,19392
2017-03-10T12:54:53.415Z,22912
2017-03-10T12:56:04.139Z,25472
2017-03-10T12:57:14.873Z,26624
2017-03-10T12:58:25.617Z,29248
2017-03-10T12:59:35.974Z,30016
2017-03-10T13:00:46.699Z,24800
2017-03-10T13:01:57.437Z,22752
2017-03-10T13:03:08.183Z,31968
2017-03-10T13:04:18.498Z,23392
2017-03-10T13:05:29.241Z,25920
2017-03-10T13:06:39.982Z,24128
2017-03-10T13:07:50.755Z,23840
2017-03-10T13:09:01.072Z,25888
2017-03-10T13:10:11.399Z,26144
2017-03-10T13:11:22.147Z,23840
2017-03-10T13:12:32.866Z,22432
2017-03-10T13:13:43.588Z,21984
2017-03-10T13:14:53.920Z,21312
2017-03-10T13:16:04.645Z,20960
2017-03-10T13:17:14.974Z,20672
2017-03-10T13:18:25.679Z,20352
2017-03-10T13:19:36.415Z,20032
2017-03-10T13:20:47.140Z,19552
2017-03-10T13:21:57.864Z,19424
2017-03-10T13:23:08.182Z,19008
2017-03-10T13:24:18.913Z,18976
2017-03-10T13:25:29.646Z,18816
2017-03-10T13:26:40.369Z,18720
2017-03-10T13:27:51.098Z,18432
2017-03-10T13:29:01.825Z,18112
2017-03-10T13:30:12.547Z,18016
2017-03-10T13:31:23.261Z,17920
2017-03-10T13:32:33.979Z,18048
2017-03-10T13:33:43.903Z,17888
2017-03-10T13:34:54.615Z,17568
2017-03-10T13:36:05.351Z,17088
2017-03-10T13:37:16.095Z,16672
2017-03-10T13:38:26.831Z,16448
2017-03-10T13:39:37.561Z,16224
2017-03-10T13:40:47.911Z,16160
2017-03-10T13:41:58.630Z,16256
2017-03-10T13:43:09.354Z,16192
2017-03-10T13:44:20.094Z,15952
2017-03-10T13:45:30.831Z,15812
2017-03-10T13:46:41.143Z,15956
2017-03-10T13:47:51.865Z,15900
2017-03-10T13:49:02.589Z,15948
2017-03-10T13:50:13.302Z,17120
2017-03-10T13:51:24.020Z,17504
2017-03-10T13:52:34.762Z,17760
2017-03-10T13:53:45.481Z,18240
2017-03-10T13:54:56.219Z,16928
2017-03-10T13:56:06.964Z,15840
2017-03-10T13:57:17.285Z,15224
2017-03-10T13:58:28.017Z,15144
2017-03-10T13:59:38.742Z,15244
2017-03-10T14:00:49.450Z,14772
2017-03-10T14:01:59.771Z,14612
2017-03-10T14:03:10.497Z,14800
2017-03-10T14:04:21.215Z,14736
2017-03-10T14:05:31.923Z,14800
2017-03-10T14:06:42.691Z,14964
2017-03-10T14:07:53.401Z,15064
2017-03-10T14:09:04.119Z,15076
2017-03-10T14:10:14.829Z,15016
2017-03-10T14:11:25.545Z,14928
2017-03-10T14:12:35.849Z,15044
2017-03-10T14:13:46.569Z,15320
2017-03-10T14:14:56.901Z,15584
2017-03-10T14:16:07.646Z,15792
2017-03-10T14:17:18.368Z,16096
2017-03-10T14:18:29.094Z,16256
2017-03-10T14:19:39.832Z,16320
2017-03-10T14:20:50.540Z,16800
2017-03-10T14:22:01.255Z,18464
2017-03-10T14:23:11.586Z,18048
2017-03-10T14:24:22.291Z,18272
2017-03-10T14:25:33.046Z,19040
2017-03-10T14:26:43.747Z,18944
2017-03-10T14:27:54.051Z,20000
2017-03-10T14:29:04.774Z,21984
2017-03-10T14:30:15.492Z,20224
2017-03-10T14:31:26.205Z,20544
2017-03-10T14:32:36.517Z,20160
2017-03-10T14:33:46.825Z,20288
2017-03-10T14:34:57.190Z,20416
2017-03-10T14:36:07.908Z,20320
2017-03-10T14:37:18.232Z,17408
2017-03-10T14:38:28.947Z,17408
2017-03-10T14:39:39.675Z,16704
2017-03-10T14:40:50.401Z,16768
2017-03-10T14:42:00.712Z,17344
2017-03-10T14:43:11.034Z,17504
2017-03-10T14:44:21.777Z,17760
2017-03-10T14:45:32.500Z,16512
2017-03-10T14:46:43.218Z,16832
2017-03-10T14:47:53.956Z,18432
2017-03-10T14:49:03.879Z,18720
2017-03-10T14:50:14.626Z,33536
2017-03-10T14:51:25.365Z,41440
2017-03-10T14:52:35.686Z,16544
2017-03-10T14:53:46.410Z,15744
2017-03-10T14:54:56.334Z,14684
2017-03-10T14:56:06.671Z,19712
2017-03-10T14:57:17.009Z,17792
2017-03-10T14:58:27.723Z,12464
2017-03-10T14:59:38.049Z,11736
2017-03-10T15:00:48.766Z,11568
2017-03-10T15:01:59.519Z,11028
2017-03-10T15:03:10.234Z,10800
2017-03-10T15:04:20.583Z,10792
2017-03-10T15:05:31.303Z,10736
2017-03-10T15:06:41.644Z,10684
2017-03-10T15:07:52.352Z,10608
2017-03-10T15:09:03.089Z,10552
2017-03-10T15:10:13.813Z,10356
2017-03-10T15:11:24.542Z,10028
2017-03-10T15:12:35.300Z,9824
2017-03-10T15:13:46.016Z,9596
2017-03-10T15:14:56.323Z,9548
2017-03-10T15:16:06.245Z,9456
2017-03-10T15:17:16.601Z,9424
2017-03-10T15:18:27.318Z,9572
2017-03-10T15:19:37.648Z,9764
2017-03-10T15:20:48.360Z,9696
2017-03-10T15:21:58.677Z,9516
2017-03-10T15:23:09.413Z,8904
2017-03-10T15:24:20.131Z,8452
2017-03-10T15:25:30.867Z,7912
2017-03-10T15:26:41.612Z,7712
2017-03-10T15:27:52.326Z,7524
2017-03-10T15:29:03.028Z,7192
2017-03-10T15:30:13.360Z,7024
2017-03-10T15:31:22.881Z,6176
2017-03-10T15:32:33.605Z,6100
2017-03-10T15:33:44.317Z,6152
2017-03-10T15:34:55.051Z,6524
2017-03-10T15:36:05.375Z,6644
2017-03-10T15:37:15.699Z,10252
2017-03-10T15:38:26.413Z,7828
2017-03-10T15:39:37.137Z,13096
2017-03-10T15:40:47.845Z,10644
2017-03-10T15:41:58.176Z,7280
2017-03-10T15:43:08.880Z,6252
2017-03-10T15:44:19.613Z,6128
2017-03-10T15:45:30.335Z,5856
2017-03-10T15:46:41.039Z,5912
2017-03-10T15:47:51.735Z,5920
2017-03-10T15:49:02.504Z,5748
2017-03-10T15:50:12.817Z,5436
2017-03-10T15:51:23.532Z,5156
2017-03-10T15:52:34.248Z,4892
2017-03-10T15:53:44.979Z,4720
2017-03-10T15:54:55.694Z,4672
2017-03-10T15:56:06.419Z,4608
2017-03-10T15:57:17.129Z,4420
2017-03-10T15:58:27.852Z,4152
2017-03-10T15:59:38.182Z,3952
2017-03-10T16:00:48.897Z,3864
2017-03-10T16:01:59.620Z,3824
2017-03-10T16:03:09.930Z,3744
2017-03-10T16:04:20.649Z,3620
2017-03-10T16:05:31.359Z,3544